createdAt,value
2018-11-10T00:01:23.835Z,11.28
2018-11-10T00:03:51.921Z,13.00
2018-11-10T00:06:20.010Z,12.47
2018-11-10T00:08:48.085Z,10.28
2018-11-10T00:11:16.160Z,12.28
2018-11-10T00:13:44.277Z,13.98
2018-11-10T00:16:12.361Z,12.28
2018-11-10T00:18:40.429Z,10.80
2018-11-10T00:21:08.492Z,11.83
2018-11-10T00:23:36.573Z,11.15
2018-11-10T00:26:04.805Z,12.03
2018-11-10T00:28:32.860Z,12.30
2018-11-10T00:31:00.925Z,11.12
2018-11-10T00:33:29.000Z,10.72
2018-11-10T00:35:57.065Z,10.58
2018-11-10T00:38:25.129Z,9.93
2018-11-10T00:40:53.209Z,11.55
2018-11-10T00:43:21.260Z,9.68
2018-11-10T00:45:49.329Z,11.48
2018-11-10T00:48:17.381Z,8.73
2018-11-10T00:50:45.484Z,12.05
2018-11-10T00:53:13.533Z,9.30
2018-11-10T00:55:41.636Z,9.38
2018-11-10T00:58:09.701Z,9.35
2018-11-10T01:00:37.769Z,9.00
2018-11-10T01:03:06.009Z,8.73
2018-11-10T01:05:34.090Z,10.60
2018-11-10T01:08:02.146Z,8.05
2018-11-10T01:10:30.204Z,9.83
2018-11-10T01:12:58.265Z,7.00
2018-11-10T01:15:26.357Z,8.18
2018-11-10T01:17:54.437Z,10.60
2018-11-10T01:20:22.496Z,9.70
2018-11-10T01:22:50.567Z,10.25
2018-11-10T01:25:18.637Z,10.20
2018-11-10T01:27:46.821Z,8.95
2018-11-10T01:30:15.888Z,8.63
2018-11-10T01:32:44.996Z,8.58
2018-11-10T01:35:13.497Z,10.00
2018-11-10T01:37:41.617Z,9.25
2018-11-10T01:40:11.201Z,10.00
2018-11-10T01:42:39.282Z,9.88
2018-11-10T01:45:09.413Z,9.98
2018-11-10T01:47:37.501Z,11.28
2018-11-10T01:50:06.133Z,10.45
2018-11-10T01:52:34.197Z,8.38
2018-11-10T01:55:02.257Z,9.95
2018-11-10T01:57:30.339Z,10.58
2018-11-10T01:59:58.412Z,11.00
2018-11-10T02:02:26.458Z,9.90
2018-11-10T02:04:54.517Z,9.80
2018-11-10T02:07:22.590Z,10.35
2018-11-10T02:09:50.745Z,11.25
2018-11-10T02:12:18.826Z,10.85
2018-11-10T02:14:46.897Z,9.90
2018-11-10T02:17:14.963Z,11.65
2018-11-10T02:19:43.037Z,10.72
2018-11-10T02:22:11.106Z,11.03
2018-11-10T02:24:39.173Z,9.15
2018-11-10T02:27:13.548Z,9.90
2018-11-10T02:29:41.621Z,12.10
2018-11-10T02:32:09.684Z,10.35
2018-11-10T02:34:37.766Z,11.22
2018-11-10T02:37:06.053Z,8.18
2018-11-10T02:39:34.121Z,10.13
2018-11-10T02:42:08.881Z,9.80
2018-11-10T02:44:36.945Z,8.95
2018-11-10T02:47:05.149Z,10.48
2018-11-10T02:49:33.336Z,11.38
2018-11-10T02:52:01.406Z,9.20
2018-11-10T02:54:29.465Z,7.40
2018-11-10T02:56:57.533Z,10.50
2018-11-10T02:59:25.589Z,8.20
2018-11-10T03:01:53.809Z,8.20
2018-11-10T03:04:22.054Z,10.13
2018-11-10T03:06:50.120Z,9.88
2018-11-10T03:09:18.181Z,9.95
2018-11-10T03:11:46.249Z,8.40
2018-11-10T03:14:14.301Z,8.33
2018-11-10T03:16:42.369Z,8.70
2018-11-10T03:19:10.421Z,8.98
2018-11-10T03:21:38.520Z,7.62
2018-11-10T03:24:06.590Z,10.65
2018-11-10T03:26:34.648Z,8.45
2018-11-10T03:29:02.711Z,8.93
2018-11-10T03:31:30.778Z,9.05
2018-11-10T03:33:58.842Z,7.33
2018-11-10T03:36:26.892Z,8.23
2018-11-10T03:38:54.948Z,8.58
2018-11-10T03:41:23.012Z,8.95
2018-11-10T03:43:51.069Z,8.68
2018-11-10T03:46:19.132Z,8.95
2018-11-10T03:48:47.272Z,9.53
2018-11-10T03:51:15.255Z,8.55
2018-11-10T03:53:43.305Z,9.35
2018-11-10T03:56:11.373Z,9.43
2018-11-10T03:58:39.428Z,9.40
2018-11-10T04:01:07.489Z,9.83
2018-11-10T04:03:35.549Z,8.38
2018-11-10T04:06:03.633Z,8.73
2018-11-10T04:08:31.693Z,7.62
2018-11-10T04:10:59.745Z,8.08
2018-11-10T04:13:27.804Z,8.65
2018-11-10T04:15:55.869Z,7.45
2018-11-10T04:18:23.945Z,7.78
2018-11-10T04:20:52.016Z,8.00
2018-11-10T04:23:20.064Z,7.22
2018-11-10T04:25:48.132Z,7.72
2018-11-10T04:28:16.200Z,8.98
2018-11-10T04:30:44.874Z,9.20
2018-11-10T04:33:12.933Z,8.40
2018-11-10T04:35:40.997Z,8.03
2018-11-10T04:38:09.064Z,8.18
2018-11-10T04:40:37.120Z,8.40
2018-11-10T04:43:05.438Z,9.68
2018-11-10T04:45:33.496Z,7.92
2018-11-10T04:48:01.560Z,8.53
2018-11-10T04:50:29.620Z,8.20
2018-11-10T04:52:57.692Z,9.63
2018-11-10T04:55:25.749Z,7.42
2018-11-10T04:57:53.812Z,8.48
2018-11-10T05:00:21.879Z,8.33
2018-11-10T05:02:49.945Z,8.88
2018-11-10T05:05:18.023Z,8.55
2018-11-10T05:07:46.089Z,8.85
2018-11-10T05:10:14.157Z,9.20
2018-11-10T05:12:42.225Z,10.40
2018-11-10T05:15:11.768Z,9.93
2018-11-10T05:17:39.898Z,10.00
2018-11-10T05:20:07.985Z,8.78
2018-11-10T05:22:36.068Z,9.30
2018-11-10T05:25:04.526Z,10.55
2018-11-10T05:27:32.696Z,10.00
2018-11-10T05:30:00.802Z,9.18
2018-11-10T05:32:28.872Z,9.45
2018-11-10T05:34:56.948Z,10.38
2018-11-10T05:37:25.040Z,11.15
2018-11-10T05:39:53.144Z,9.90
2018-11-10T05:42:21.247Z,9.73
2018-11-10T05:44:49.325Z,9.78
2018-11-10T05:47:17.404Z,8.40
2018-11-10T05:49:45.481Z,9.63
2018-11-10T05:52:13.662Z,11.03
2018-11-10T05:54:41.743Z,8.78
2018-11-10T05:57:09.878Z,10.28
2018-11-10T05:59:37.939Z,9.75
2018-11-10T06:02:06.217Z,10.60
2018-11-10T06:04:34.292Z,9.63
2018-11-10T06:07:02.372Z,9.78
2018-11-10T06:09:30.497Z,11.50
2018-11-10T06:11:58.547Z,8.40
2018-11-10T06:14:26.632Z,11.05
2018-11-10T06:16:54.741Z,12.07
2018-11-10T06:19:22.829Z,9.10
2018-11-10T06:21:51.748Z,9.20
2018-11-10T06:24:19.832Z,9.43
2018-11-10T06:26:47.924Z,11.00
2018-11-10T06:29:16.009Z,10.68
2018-11-10T06:31:44.133Z,9.18
2018-11-10T06:34:12.215Z,8.88
2018-11-10T06:36:40.314Z,10.30
2018-11-10T06:39:09.625Z,12.10
2018-11-10T06:41:37.737Z,10.28
2018-11-10T06:44:05.889Z,11.85
2018-11-10T06:46:33.985Z,9.93
2018-11-10T06:49:02.082Z,12.65
2018-11-10T06:51:30.177Z,9.95
2018-11-10T06:53:58.257Z,9.73
2018-11-10T06:56:26.397Z,11.57
2018-11-10T06:58:54.496Z,11.73
2018-11-10T07:01:22.681Z,11.30
2018-11-10T07:03:50.881Z,11.45
2018-11-10T07:06:18.969Z,11.88
2018-11-10T07:08:47.101Z,11.63
2018-11-10T07:11:15.180Z,11.30
2018-11-10T07:13:43.273Z,11.28
2018-11-10T07:16:11.701Z,10.13
2018-11-10T07:18:39.777Z,10.15
2018-11-10T07:21:07.849Z,10.88
2018-11-10T07:23:35.926Z,13.58
2018-11-10T07:26:04.021Z,12.58
2018-11-10T07:28:32.093Z,11.80
2018-11-10T07:31:00.185Z,12.47
2018-11-10T07:33:28.283Z,12.93
2018-11-10T07:35:56.357Z,13.43
2018-11-10T07:38:24.453Z,12.53
2018-11-10T07:40:52.527Z,12.65
2018-11-10T07:43:20.597Z,12.13
2018-11-10T07:45:48.660Z,11.75
2018-11-10T07:48:16.736Z,13.70
2018-11-10T07:50:44.800Z,14.47
2018-11-10T07:53:12.979Z,11.78
2018-11-10T07:55:41.056Z,12.15
2018-11-10T07:58:09.106Z,13.25
2018-11-10T08:00:37.177Z,12.93
2018-11-10T08:03:05.281Z,14.05
2018-11-10T08:05:34.213Z,12.28
2018-11-10T08:08:02.312Z,10.50
2018-11-10T08:10:30.389Z,11.50
2018-11-10T08:12:58.472Z,12.47
2018-11-10T08:15:26.540Z,11.85
2018-11-10T08:17:54.632Z,11.80
2018-11-10T08:20:22.722Z,11.60
2018-11-10T08:22:50.813Z,12.15
2018-11-10T08:25:18.908Z,11.33
2018-11-10T08:27:46.997Z,13.50
2018-11-10T08:30:15.294Z,13.62
2018-11-10T08:32:43.776Z,12.00
2018-11-10T08:35:12.802Z,12.37
2018-11-10T08:37:40.882Z,12.50
2018-11-10T08:40:11.421Z,11.83
2018-11-10T08:42:39.512Z,12.40
2018-11-10T08:45:08.521Z,10.50
2018-11-10T08:47:36.625Z,12.35
2018-11-10T08:50:05.656Z,11.18
2018-11-10T08:52:33.749Z,13.75
2018-11-10T08:55:01.833Z,11.90
2018-11-10T08:57:29.968Z,13.90
2018-11-10T08:59:58.012Z,12.20
2018-11-10T09:02:26.092Z,12.93
2018-11-10T09:04:54.181Z,11.88
2018-11-10T09:07:22.397Z,11.20
2018-11-10T09:09:50.553Z,13.65
2018-11-10T09:12:18.584Z,12.37
2018-11-10T09:14:46.685Z,13.25
2018-11-10T09:17:14.781Z,14.28
2018-11-10T09:19:42.897Z,14.53
2018-11-10T09:22:10.988Z,13.53
2018-11-10T09:24:39.070Z,11.88
2018-11-10T09:27:07.173Z,12.43
2018-11-10T09:29:35.260Z,13.53
2018-11-10T09:32:03.372Z,12.73
2018-11-10T09:34:31.452Z,15.58
2018-11-10T09:36:59.556Z,12.07
2018-11-10T09:39:27.628Z,12.37
2018-11-10T09:41:55.835Z,12.55
2018-11-10T09:44:23.937Z,12.55
2018-11-10T09:46:52.030Z,12.70
2018-11-10T09:49:20.137Z,12.80
2018-11-10T09:51:48.229Z,14.23
2018-11-10T09:54:16.357Z,14.43
2018-11-10T09:56:44.445Z,14.23
2018-11-10T09:59:12.549Z,12.65
2018-11-10T10:01:40.897Z,12.90
2018-11-10T10:04:08.857Z,13.55
2018-11-10T10:06:37.052Z,10.43
2018-11-10T10:09:07.335Z,12.40
2018-11-10T10:11:35.489Z,14.18
2018-11-10T10:14:03.829Z,12.73
2018-11-10T10:16:31.921Z,13.60
2018-11-10T10:18:59.984Z,13.25
2018-11-10T10:21:28.045Z,12.13
2018-11-10T10:23:56.113Z,12.37
2018-11-10T10:26:24.184Z,13.35
2018-11-10T10:28:52.289Z,13.48
2018-11-10T10:31:20.341Z,13.48
2018-11-10T10:33:48.405Z,12.65
2018-11-10T10:36:16.509Z,13.40
2018-11-10T10:38:44.676Z,12.63
2018-11-10T10:41:12.784Z,12.05
2018-11-10T10:43:40.857Z,14.35
2018-11-10T10:46:09.009Z,13.22
2018-11-10T10:48:37.138Z,12.75
2018-11-10T10:51:05.897Z,13.32
2018-11-10T10:53:33.955Z,12.13
2018-11-10T10:56:02.126Z,12.80
2018-11-10T10:58:30.133Z,13.03
2018-11-10T11:01:03.733Z,11.78
2018-11-10T11:03:37.185Z,12.82
2018-11-10T11:06:05.293Z,13.38
2018-11-10T11:08:33.364Z,13.05
2018-11-10T11:11:01.433Z,13.53
2018-11-10T11:13:29.500Z,12.82
2018-11-10T11:15:57.565Z,11.83
2018-11-10T11:18:25.669Z,11.88
2018-11-10T11:20:53.773Z,11.75
2018-11-10T11:23:21.865Z,12.73
2018-11-10T11:25:49.948Z,14.63
2018-11-10T11:28:18.053Z,14.53
2018-11-10T11:30:46.150Z,13.43
2018-11-10T11:33:14.357Z,12.88
2018-11-10T11:35:42.451Z,12.70
2018-11-10T11:38:10.536Z,12.40
2018-11-10T11:40:38.624Z,14.28
2018-11-10T11:43:06.768Z,11.22
2018-11-10T11:45:34.854Z,13.22
2018-11-10T11:48:02.944Z,14.38
2018-11-10T11:50:31.157Z,13.22
2018-11-10T11:52:59.256Z,13.85
2018-11-10T11:55:27.332Z,13.95
2018-11-10T11:57:55.604Z,12.82
2018-11-10T12:00:23.570Z,12.63
2018-11-10T12:02:51.697Z,12.60
2018-11-10T12:05:19.774Z,14.93
2018-11-10T12:07:47.868Z,13.28
2018-11-10T12:10:16.645Z,13.70
2018-11-10T12:12:44.730Z,12.35
2018-11-10T12:15:14.086Z,12.23
2018-11-10T12:17:42.116Z,13.62
2018-11-10T12:20:12.368Z,12.23
2018-11-10T12:22:40.752Z,12.43
2018-11-10T12:25:09.871Z,11.85
2018-11-10T12:27:37.938Z,12.33
2018-11-10T12:30:07.110Z,11.90
2018-11-10T12:32:35.169Z,12.75
2018-11-10T12:35:03.408Z,11.35
2018-11-10T12:37:31.620Z,11.57
2018-11-10T12:39:59.689Z,13.13
2018-11-10T12:42:27.744Z,8.93
2018-11-10T12:44:55.856Z,11.22
2018-11-10T12:47:23.938Z,10.15
2018-11-10T12:49:52.009Z,11.53
2018-11-10T12:52:20.146Z,11.15
2018-11-10T12:54:48.197Z,10.72
2018-11-10T12:57:16.220Z,10.48
2018-11-10T12:59:44.290Z,10.72
2018-11-10T13:02:12.362Z,11.05
2018-11-10T13:04:40.430Z,11.45
2018-11-10T13:07:08.551Z,11.60
2018-11-10T13:09:36.572Z,10.30
2018-11-10T13:12:05.118Z,10.05
2018-11-10T13:14:33.215Z,11.95
2018-11-10T13:17:01.253Z,11.12
2018-11-10T13:19:29.336Z,10.28
2018-11-10T13:21:57.432Z,11.05
2018-11-10T13:24:25.527Z,9.43
2018-11-10T13:26:53.621Z,10.25
2018-11-10T13:29:21.704Z,10.23
2018-11-10T13:31:49.850Z,8.75
2018-11-10T13:34:17.877Z,9.20
2018-11-10T13:36:45.957Z,9.48
2018-11-10T13:39:14.092Z,10.68
2018-11-10T13:41:42.128Z,7.15
2018-11-10T13:44:10.230Z,8.60
2018-11-10T13:46:38.304Z,9.40
2018-11-10T13:49:06.385Z,9.35
2018-11-10T13:51:34.604Z,9.63
2018-11-10T13:54:02.562Z,6.87
2018-11-10T13:56:30.637Z,8.05
2018-11-10T13:58:58.722Z,7.30
2018-11-10T14:01:27.025Z,7.35
2018-11-10T14:03:55.110Z,8.65
2018-11-10T14:06:23.211Z,7.17
2018-11-10T14:08:51.309Z,7.15
2018-11-10T14:11:19.393Z,7.45
2018-11-10T14:13:47.484Z,7.45
2018-11-10T14:16:15.561Z,6.92
2018-11-10T14:18:43.644Z,7.08
2018-11-10T14:21:11.724Z,7.78
2018-11-10T14:23:39.810Z,6.70
2018-11-10T14:26:07.915Z,8.30
2018-11-10T14:28:35.978Z,5.85
2018-11-10T14:31:04.072Z,6.97
2018-11-10T14:33:32.152Z,6.12
2018-11-10T14:36:00.237Z,6.17
2018-11-10T14:38:28.317Z,7.50
2018-11-10T14:40:56.436Z,7.72
2018-11-10T14:43:24.516Z,6.65
2018-11-10T14:45:52.609Z,6.78
2018-11-10T14:48:20.687Z,6.83
2018-11-10T14:50:48.783Z,7.35
2018-11-10T14:53:16.972Z,7.10
2018-11-10T14:55:44.968Z,6.10
2018-11-10T14:58:13.048Z,7.17
2018-11-10T15:00:41.152Z,6.35
2018-11-10T15:03:09.229Z,7.25
2018-11-10T15:05:37.351Z,7.03
2018-11-10T15:08:05.933Z,6.92
2018-11-10T15:10:34.010Z,7.00
2018-11-10T15:13:02.092Z,7.05
2018-11-10T15:15:30.169Z,6.60
2018-11-10T15:17:58.283Z,6.75
2018-11-10T15:20:26.348Z,6.22
2018-11-10T15:22:54.434Z,4.90
2018-11-10T15:25:22.681Z,6.30
2018-11-10T15:27:50.676Z,6.50
2018-11-10T15:30:20.008Z,6.15
2018-11-10T15:32:48.513Z,6.28
2018-11-10T15:35:17.914Z,6.62
2018-11-10T15:37:47.445Z,7.22
2018-11-10T15:40:16.038Z,5.17
2018-11-10T15:42:44.328Z,5.60
2018-11-10T15:45:13.437Z,5.78
2018-11-10T15:47:42.029Z,5.55
2018-11-10T15:50:11.749Z,4.85
2018-11-10T15:52:39.837Z,4.78
2018-11-10T15:55:08.856Z,5.65
2018-11-10T15:57:37.956Z,5.22
2018-11-10T16:00:07.520Z,4.45
2018-11-10T16:02:35.601Z,5.30
2018-11-10T16:05:03.693Z,5.60
2018-11-10T16:07:31.785Z,5.50
2018-11-10T16:09:59.898Z,5.00
2018-11-10T16:12:28.397Z,4.85
2018-11-10T16:14:56.453Z,3.80
2018-11-10T16:17:24.520Z,4.90
2018-11-10T16:19:52.589Z,3.62
2018-11-10T16:22:20.696Z,4.25
2018-11-10T16:24:48.906Z,4.35
2018-11-10T16:27:17.134Z,5.08
2018-11-10T16:29:45.189Z,4.30
2018-11-10T16:32:13.253Z,3.95
2018-11-10T16:34:41.325Z,5.22
2018-11-10T16:37:09.693Z,4.20
2018-11-10T16:39:37.650Z,3.90
2018-11-10T16:42:06.169Z,4.00
2018-11-10T16:44:34.332Z,4.47
2018-11-10T16:47:02.388Z,3.80
2018-11-10T16:49:30.440Z,3.70
2018-11-10T16:51:58.509Z,2.75
2018-11-10T16:54:26.775Z,2.70
2018-11-10T16:56:54.842Z,3.05
2018-11-10T16:59:22.900Z,3.50
2018-11-10T17:01:50.961Z,4.20
2018-11-10T17:04:19.022Z,3.77
2018-11-10T17:06:47.089Z,3.47
2018-11-10T17:09:15.145Z,4.85
2018-11-10T17:11:43.224Z,2.92
2018-11-10T17:14:11.753Z,3.50
2018-11-10T17:16:40.565Z,3.80
2018-11-10T17:19:09.666Z,4.30
2018-11-10T17:21:37.795Z,3.58
2018-11-10T17:24:05.869Z,3.15
2018-11-10T17:26:33.949Z,3.45
2018-11-10T17:29:02.092Z,3.85
2018-11-10T17:31:30.209Z,3.12
2018-11-10T17:33:58.589Z,3.90
2018-11-10T17:36:26.984Z,3.60
2018-11-10T17:38:55.097Z,3.98
2018-11-10T17:41:23.882Z,3.40
2018-11-10T17:43:51.964Z,2.80
2018-11-10T17:46:20.061Z,3.20
2018-11-10T17:48:48.146Z,3.17
2018-11-10T17:51:16.217Z,3.22
2018-11-10T17:53:44.309Z,3.10
2018-11-10T17:56:12.449Z,3.60
2018-11-10T17:58:40.563Z,3.15
2018-11-10T18:01:08.613Z,2.72
2018-11-10T18:03:36.740Z,2.87
2018-11-10T18:06:05.021Z,2.33
2018-11-10T18:08:33.118Z,3.22
2018-11-10T18:11:01.193Z,2.83
2018-11-10T18:13:29.307Z,2.27
2018-11-10T18:15:57.389Z,2.45
2018-11-10T18:18:25.453Z,2.83
2018-11-10T18:20:53.516Z,3.02
2018-11-10T18:23:21.586Z,3.15
2018-11-10T18:25:49.645Z,3.22
2018-11-10T18:28:17.721Z,2.10
2018-11-10T18:30:45.793Z,2.80
2018-11-10T18:33:13.880Z,2.95
2018-11-10T18:35:41.945Z,3.42
2018-11-10T18:38:10.010Z,2.33
2018-11-10T18:40:38.080Z,2.65
2018-11-10T18:43:06.157Z,2.40
2018-11-10T18:45:34.218Z,2.77
2018-11-10T18:48:02.281Z,2.67
2018-11-10T18:50:30.332Z,2.40
2018-11-10T18:52:58.412Z,3.47
2018-11-10T18:55:26.502Z,3.02
2018-11-10T18:57:54.641Z,3.05
2018-11-10T19:00:22.672Z,2.80
2018-11-10T19:02:50.775Z,2.62
2018-11-10T19:05:18.852Z,2.70
2018-11-10T19:07:46.961Z,2.95
2018-11-10T19:10:16.362Z,3.62
2018-11-10T19:12:44.530Z,3.30
2018-11-10T19:15:16.005Z,3.65
2018-11-10T19:17:44.173Z,3.42
2018-11-10T19:20:13.097Z,3.80
2018-11-10T19:22:41.614Z,3.12
2018-11-10T19:25:11.244Z,3.20
2018-11-10T19:27:39.357Z,3.15
2018-11-10T19:30:12.201Z,2.70
2018-11-10T19:32:40.377Z,2.72
2018-11-10T19:35:08.460Z,3.60
2018-11-10T19:37:36.540Z,3.45
2018-11-10T19:40:05.816Z,3.60
2018-11-10T19:42:33.886Z,4.53
2018-11-10T19:45:01.988Z,3.72
2018-11-10T19:47:30.261Z,3.70
2018-11-10T19:49:58.372Z,4.10
2018-11-10T19:52:26.429Z,3.42
2018-11-10T19:54:54.572Z,3.35
2018-11-10T19:57:22.657Z,3.95
2018-11-10T19:59:50.736Z,4.28
2018-11-10T20:02:18.917Z,4.58
2018-11-10T20:04:47.017Z,6.03
2018-11-10T20:07:15.101Z,5.47
2018-11-10T20:09:43.293Z,5.05
2018-11-10T20:12:11.368Z,4.95
2018-11-10T20:14:39.450Z,4.83
2018-11-10T20:17:07.617Z,5.47
2018-11-10T20:19:35.754Z,5.75
2018-11-10T20:22:03.815Z,5.05
2018-11-10T20:24:32.701Z,5.55
2018-11-10T20:27:00.786Z,5.35
2018-11-10T20:29:28.877Z,5.58
2018-11-10T20:31:56.959Z,4.62
2018-11-10T20:34:25.068Z,5.62
2018-11-10T20:36:53.153Z,5.33
2018-11-10T20:39:21.272Z,5.40
2018-11-10T20:41:49.357Z,5.55
2018-11-10T20:44:17.437Z,5.50
2018-11-10T20:46:45.520Z,4.10
2018-11-10T20:49:13.604Z,3.92
2018-11-10T20:51:41.689Z,4.65
2018-11-10T20:54:09.785Z,5.30
2018-11-10T20:56:37.886Z,6.03
2018-11-10T20:59:05.997Z,4.55
2018-11-10T21:01:34.093Z,4.75
2018-11-10T21:04:02.177Z,4.15
2018-11-10T21:06:30.277Z,4.05
2018-11-10T21:08:58.360Z,3.65
2018-11-10T21:11:26.523Z,3.65
2018-11-10T21:13:54.601Z,3.65
2018-11-10T21:16:22.808Z,3.22
2018-11-10T21:18:50.881Z,3.15
2018-11-10T21:21:18.956Z,3.10
2018-11-10T21:23:47.013Z,2.02
2018-11-10T21:26:15.089Z,2.00
2018-11-10T21:28:43.206Z,2.30
2018-11-10T21:31:11.219Z,2.65
2018-11-10T21:33:39.405Z,2.08
2018-11-10T21:36:07.340Z,2.33
2018-11-10T21:38:35.393Z,2.08
2018-11-10T21:41:03.521Z,2.25
2018-11-10T21:43:31.639Z,2.42
2018-11-10T21:45:59.656Z,2.52
2018-11-10T21:48:27.707Z,2.20
2018-11-10T21:50:55.773Z,2.75
2018-11-10T21:53:23.832Z,3.02
2018-11-10T21:55:51.893Z,2.45
2018-11-10T21:58:19.957Z,2.52
2018-11-10T22:00:48.032Z,2.50
2018-11-10T22:03:16.097Z,2.35
2018-11-10T22:05:44.157Z,2.20
2018-11-10T22:08:12.225Z,2.87
2018-11-10T22:10:40.280Z,2.12
2018-11-10T22:13:08.373Z,2.35
2018-11-10T22:15:36.444Z,2.98
2018-11-10T22:18:04.609Z,1.87
2018-11-10T22:20:32.690Z,2.50
2018-11-10T22:23:00.839Z,2.40
2018-11-10T22:25:28.873Z,2.65
2018-11-10T22:27:56.952Z,2.85
2018-11-10T22:30:25.029Z,2.47
2018-11-10T22:32:53.136Z,3.15
2018-11-10T22:35:21.221Z,2.62
2018-11-10T22:37:49.293Z,2.22
2018-11-10T22:40:18.712Z,3.20
2018-11-10T22:42:47.117Z,3.17
2018-11-10T22:45:16.521Z,2.80
2018-11-10T22:47:44.644Z,2.98
2018-11-10T22:50:14.937Z,3.08
2018-11-10T22:52:43.440Z,3.40
2018-11-10T22:55:11.633Z,2.77
2018-11-10T22:57:39.917Z,3.05
2018-11-10T23:00:16.605Z,3.10
2018-11-10T23:02:47.564Z,4.15
2018-11-10T23:05:16.070Z,4.03
2018-11-10T23:07:44.165Z,2.60
2018-11-10T23:10:13.042Z,2.83
2018-11-10T23:12:41.229Z,4.70
2018-11-10T23:15:09.509Z,3.83
2018-11-10T23:17:37.714Z,3.90
2018-11-10T23:20:07.017Z,3.72
2018-11-10T23:22:35.629Z,4.83
2018-11-10T23:25:03.697Z,5.30
2018-11-10T23:27:31.760Z,5.37
2018-11-10T23:29:59.829Z,5.33
2018-11-10T23:32:27.894Z,6.67
2018-11-10T23:34:55.957Z,6.50
2018-11-10T23:37:24.021Z,5.70
2018-11-10T23:39:52.097Z,6.08
2018-11-10T23:42:20.165Z,6.20
2018-11-10T23:44:48.236Z,6.45
2018-11-10T23:47:16.293Z,6.90
2018-11-10T23:49:44.361Z,6.35
2018-11-10T23:52:12.421Z,7.22
2018-11-10T23:54:40.488Z,6.22
2018-11-10T23:57:08.555Z,6.72
2018-11-10T23:59:36.625Z,6.90
